Time;durP1;ratioP1;P1;durP2;ratioP2;P2;SDS_P1;SDS_P2;PMS_P1;PMS_P2;Temp;Humidity;BMP_temperature;BMP_pressure;BME280_temperature;BME280_humidity;BME280_pressure;Samples;Min_cycle;Max_cycle;Signal;HPM_P1;HPM_P2
2023/04/02 00:00:19;;;;;;;6.30;4.90;;;;;;;7.17;98.78;95537.20;109196;1275;22537;-82
2023/04/02 00:03:08;;;;;;;7.20;5.40;;;;;;;7.17;98.66;95543.65;109028;1276;24249;-83
2023/04/02 00:05:50;;;;;;;6.70;5.50;;;;;;;7.17;98.50;95545.33;109082;1275;85082;-83
2023/04/02 00:08:23;;;;;;;7.30;6.10;;;;;;;7.18;98.72;95546.23;109265;1272;22537;-82
2023/04/02 00:10:53;;;;;;;8.80;7.30;;;;;;;7.18;98.80;95551.28;109128;1275;22577;-82
2023/04/02 00:13:30;;;;;;;10.70;8.70;;;;;;;7.18;98.64;95550.60;109142;1264;22582;-83
2023/04/02 00:16:02;;;;;;;10.90;8.70;;;;;;;7.18;98.75;95552.39;109185;1272;34979;-82
2023/04/02 00:18:32;;;;;;;8.40;7.40;;;;;;;7.16;98.64;95555.30;109176;1275;23792;-82
2023/04/02 00:21:12;;;;;;;9.40;6.60;;;;;;;7.13;98.87;95554.60;109141;1275;24183;-82
2023/04/02 00:23:43;;;;;;;5.70;3.70;;;;;;;7.10;99.11;95555.64;109124;1275;25261;-82
2023/04/02 00:26:29;;;;;;;4.10;3.40;;;;;;;7.09;99.16;95558.02;109231;1275;54126;-82
2023/04/02 00:28:58;;;;;;;5.70;4.40;;;;;;;7.08;99.33;95556.57;109150;1269;22590;-82
2023/04/02 00:31:27;;;;;;;6.40;4.70;;;;;;;7.07;99.53;95559.43;109149;1275;23737;-83
2023/04/02 00:33:56;;;;;;;6.00;4.80;;;;;;;7.06;99.53;95559.91;109171;1275;22625;-82
2023/04/02 00:36:28;;;;;;;5.80;4.50;;;;;;;7.06;99.85;95560.65;109127;1275;41077;-82
2023/04/02 00:38:58;;;;;;;6.10;3.90;;;;;;;7.06;99.79;95562.66;109161;1275;22550;-82
2023/04/02 00:41:30;;;;;;;5.50;4.20;;;;;;;7.06;99.87;95562.08;109154;1269;22579;-82
2023/04/02 00:44:00;;;;;;;5.10;4.10;;;;;;;7.08;99.93;95563.79;109076;1275;24900;-82
2023/04/02 00:46:30;;;;;;;4.60;3.20;;;;;;;7.10;99.88;95563.29;108997;1275;54937;-82
2023/04/02 00:49:06;;;;;;;4.50;3.30;;;;;;;7.09;99.96;95565.25;109144;1275;22551;-82
2023/04/02 00:51:41;;;;;;;3.70;3.30;;;;;;;7.07;100.00;95568.97;109195;1275;22476;-82
2023/04/02 00:54:14;;;;;;;4.80;3.70;;;;;;;7.06;100.00;95564.23;109178;1269;22728;-82
2023/04/02 00:56:45;;;;;;;4.50;3.50;;;;;;;7.07;100.00;95567.11;109211;1275;43879;-82
2023/04/02 00:59:24;;;;;;;6.00;4.70;;;;;;;7.08;100.00;95567.59;109133;1275;22550;-82
2023/04/02 01:02:00;;;;;;;6.60;5.50;;;;;;;7.06;100.00;95570.92;109049;1275;25413;-82
2023/04/02 01:04:33;;;;;;;5.40;4.40;;;;;;;7.05;100.00;95574.11;109150;1269;24273;-82
2023/04/02 01:07:05;;;;;;;6.20;4.50;;;;;;;7.05;100.00;95576.75;109080;1275;59843;-82
2023/04/02 01:09:50;;;;;;;4.80;4.00;;;;;;;7.05;100.00;95579.91;109148;1264;22593;-82
2023/04/02 01:12:35;;;;;;;5.50;4.20;;;;;;;7.05;100.00;95578.90;109142;1269;22539;-82
2023/04/02 01:15:12;;;;;;;4.40;3.70;;;;;;;7.07;100.00;95580.04;109116;1269;52220;-83
2023/04/02 01:17:53;;;;;;;4.80;4.20;;;;;;;7.06;100.00;95577.42;109127;1275;24395;-82
2023/04/02 01:20:50;;;;;;;4.50;3.30;;;;;;;7.05;100.00;95578.85;109109;1272;22570;-82
2023/04/02 01:23:26;;;;;;;3.90;3.00;;;;;;;7.03;100.00;95580.75;109142;1275;22538;-82
2023/04/02 01:26:02;;;;;;;5.10;3.40;;;;;;;7.02;100.00;95582.28;109104;1275;47727;-82
2023/04/02 01:28:44;;;;;;;4.60;3.90;;;;;;;7.01;100.00;95583.88;109153;1275;22608;-83
2023/04/02 01:31:15;;;;;;;7.20;4.80;;;;;;;7.00;100.00;95583.27;109167;1275;22575;-83
2023/04/02 01:33:43;;;;;;;5.50;4.50;;;;;;;7.01;100.00;95584.25;109210;1275;23869;-82
2023/04/02 01:36:19;;;;;;;5.90;4.50;;;;;;;7.06;100.00;95585.11;109078;1275;40396;-83
2023/04/02 01:38:57;;;;;;;6.80;5.40;;;;;;;7.13;100.00;95591.93;109119;1275;22569;-82
2023/04/02 01:41:41;;;;;;;6.60;5.50;;;;;;;7.13;100.00;95594.56;109139;1275;23868;-82
2023/04/02 01:44:17;;;;;;;6.40;5.40;;;;;;;7.13;100.00;95595.13;109149;1268;22593;-82
2023/04/02 01:46:48;;;;;;;8.20;6.00;;;;;;;7.16;100.00;95599.27;109000;1272;63256;-82
2023/04/02 01:49:20;;;;;;;7.90;6.40;;;;;;;7.16;100.00;95597.68;109090;1272;22482;-82
2023/04/02 01:51:55;;;;;;;7.20;6.10;;;;;;;7.16;100.00;95603.16;109108;1275;22547;-83
2023/04/02 01:54:24;;;;;;;8.50;6.40;;;;;;;7.13;100.00;95604.36;109036;1269;23767;-83
2023/04/02 01:56:53;;;;;;;8.20;6.60;;;;;;;7.09;100.00;95603.25;109031;1275;46909;-82
2023/04/02 01:59:22;;;;;;;8.70;6.70;;;;;;;7.07;100.00;95603.16;109151;1275;22544;-82
2023/04/02 02:02:00;;;;;;;10.10;8.00;;;;;;;7.06;100.00;95604.98;109139;1275;25243;-83
2023/04/02 02:04:31;;;;;;;10.70;7.70;;;;;;;7.07;100.00;95605.38;109135;1275;22524;-83
2023/04/02 02:07:00;;;;;;;9.30;7.60;;;;;;;7.13;100.00;95606.10;109048;1275;40844;-82
2023/04/02 02:09:32;;;;;;;9.20;7.60;;;;;;;7.19;100.00;95605.41;109195;1272;22480;-82
2023/04/02 02:12:01;;;;;;;9.10;7.50;;;;;;;7.22;100.00;95608.55;109128;1269;24731;-82
2023/04/02 02:14:32;;;;;;;11.40;8.20;;;;;;;7.25;100.00;95610.67;109129;1275;22569;-82
2023/04/02 02:17:03;;;;;;;9.70;8.10;;;;;;;7.27;100.00;95610.22;109160;1275;48325;-82
2023/04/02 02:19:35;;;;;;;10.00;8.50;;;;;;;7.31;100.00;95607.27;109103;1275;24154;-83
2023/04/02 02:22:10;;;;;;;9.90;8.30;;;;;;;7.36;100.00;95603.06;109132;1275;22561;-82
2023/04/02 02:24:40;;;;;;;11.10;8.90;;;;;;;7.39;100.00;95603.12;109146;1268;25416;-82
2023/04/02 02:27:39;;;;;;;10.70;8.40;;;;;;;7.40;100.00;95604.58;109115;1272;35991;-82
2023/04/02 02:30:13;;;;;;;10.50;8.50;;;;;;;7.41;100.00;95606.14;108964;1275;22490;-82
2023/04/02 02:32:49;;;;;;;11.10;9.30;;;;;;;7.43;100.00;95607.32;109054;1275;23891;-82
2023/04/02 02:35:22;;;;;;;11.70;9.80;;;;;;;7.47;100.00;95611.69;109038;1275;75371;-82
2023/04/02 02:37:57;;;;;;;14.90;12.00;;;;;;;7.49;100.00;95609.77;109155;1275;24936;-82
2023/04/02 02:40:31;;;;;;;16.40;13.60;;;;;;;7.52;100.00;95612.89;109199;1275;22628;-82
2023/04/02 02:43:03;;;;;;;16.20;13.60;;;;;;;7.53;100.00;95614.13;109124;1275;22492;-82
2023/04/02 02:45:37;;;;;;;14.90;13.30;;;;;;;7.55;100.00;95617.59;109103;1275;34577;-82
2023/04/02 02:48:11;;;;;;;14.80;12.40;;;;;;;7.51;100.00;95621.50;109115;1260;22651;-82
2023/04/02 02:50:41;;;;;;;14.30;12.40;;;;;;;7.46;100.00;95622.61;109121;1275;24121;-82
2023/04/02 02:53:18;;;;;;;18.10;14.00;;;;;;;7.45;100.00;95623.04;109106;1275;22674;-82
2023/04/02 02:55:50;;;;;;;16.90;13.30;;;;;;;7.51;100.00;95623.88;108998;1275;64682;-82
2023/04/02 02:58:22;;;;;;;16.10;13.60;;;;;;;7.52;100.00;95625.23;109161;1269;22668;-82
2023/04/02 03:00:50;;;;;;;15.60;13.00;;;;;;;7.54;100.00;95628.73;109138;1275;23254;-82
2023/04/02 03:03:23;;;;;;;13.60;12.10;;;;;;;7.58;100.00;95631.15;109009;1267;22668;-82
2023/04/02 03:05:55;;;;;;;17.50;14.70;;;;;;;7.61;100.00;95630.35;109025;1275;41147;-82
2023/04/02 03:08:29;;;;;;;19.60;15.40;;;;;;;7.62;100.00;95631.17;109039;1268;25424;-82
2023/04/02 03:11:04;;;;;;;21.40;18.30;;;;;;;7.64;100.00;95630.73;109148;1275;22524;-82
2023/04/02 03:13:35;;;;;;;21.70;19.30;;;;;;;7.62;100.00;95634.55;109145;1275;24346;-82
2023/04/02 03:16:10;;;;;;;20.20;18.10;;;;;;;7.56;100.00;95633.77;109091;1267;64580;-82
2023/04/02 03:18:45;;;;;;;17.90;16.00;;;;;;;7.46;100.00;95637.16;109172;1275;22616;-82
2023/04/02 03:21:25;;;;;;;18.30;15.90;;;;;;;7.37;100.00;95641.34;109169;1275;23764;-82
2023/04/02 03:23:58;;;;;;;17.50;15.60;;;;;;;7.28;100.00;95645.00;109162;1268;25437;-82
2023/04/02 03:26:32;;;;;;;16.90;15.10;;;;;;;7.22;100.00;95647.40;109103;1275;42743;-82
2023/04/02 03:29:06;;;;;;;19.00;16.30;;;;;;;7.18;100.00;95649.77;109214;1272;22696;-82
2023/04/02 03:31:39;;;;;;;18.30;16.40;;;;;;;7.14;100.00;95651.52;109094;1275;22525;-82
2023/04/02 03:34:13;;;;;;;18.50;16.00;;;;;;;7.12;100.00;95658.83;109151;1275;22559;-82
2023/04/02 03:36:49;;;;;;;18.40;15.80;;;;;;;7.06;100.00;95659.16;109055;1275;51441;-82
2023/04/02 03:39:22;;;;;;;19.10;16.80;;;;;;;6.97;100.00;95659.02;109073;1275;24033;-82
2023/04/02 03:41:55;;;;;;;18.80;15.70;;;;;;;6.90;100.00;95664.31;109112;1275;25352;-82
2023/04/02 03:44:29;;;;;;;19.00;17.00;;;;;;;6.88;100.00;95661.37;109119;1275;24552;-82
2023/04/02 03:47:03;;;;;;;19.30;17.30;;;;;;;6.86;100.00;95663.23;109123;1269;41589;-82
2023/04/02 03:49:40;;;;;;;18.90;16.80;;;;;;;6.87;100.00;95670.34;109125;1269;22520;-82
2023/04/02 03:52:13;;;;;;;21.00;17.10;;;;;;;6.85;100.00;95674.21;109084;1275;23718;-82
2023/04/02 03:54:43;;;;;;;21.40;18.10;;;;;;;6.82;100.00;95676.34;109092;1260;22774;-82
2023/04/02 03:57:23;;;;;;;19.90;17.30;;;;;;;6.82;100.00;95677.39;109077;1252;51827;-82
2023/04/02 03:59:58;;;;;;;19.90;17.40;;;;;;;6.80;100.00;95677.52;109200;1252;22481;-82
2023/04/02 04:02:42;;;;;;;21.90;17.10;;;;;;;6.77;100.00;95681.44;109034;1268;22578;-82
2023/04/02 04:05:23;;;;;;;20.10;17.10;;;;;;;6.79;100.00;95683.70;109098;1271;58064;-82
2023/04/02 04:07:54;;;;;;;19.10;16.90;;;;;;;6.79;100.00;95685.70;109099;1272;22468;-82
2023/04/02 04:10:27;;;;;;;19.10;16.90;;;;;;;6.82;100.00;95691.41;109139;1268;22560;-82
2023/04/02 04:13:02;;;;;;;20.80;18.60;;;;;;;6.82;100.00;95693.09;109125;1275;23165;-82
2023/04/02 04:15:36;;;;;;;21.40;18.20;;;;;;;6.83;100.00;95696.77;109042;1269;46716;-82
2023/04/02 04:18:18;;;;;;;19.10;17.20;;;;;;;6.83;100.00;95696.71;109179;1269;22524;-82
2023/04/02 04:20:55;;;;;;;20.20;18.00;;;;;;;6.81;100.00;95705.54;109066;1273;22524;-82
2023/04/02 04:23:29;;;;;;;19.60;17.60;;;;;;;6.78;100.00;95706.61;109147;1272;23393;-83
2023/04/02 04:26:08;;;;;;;20.00;17.90;;;;;;;6.77;100.00;95709.58;109042;1270;52540;-82
2023/04/02 04:28:43;;;;;;;21.20;18.10;;;;;;;6.80;100.00;95715.18;109055;1269;23276;-83
2023/04/02 04:31:19;;;;;;;20.50;18.00;;;;;;;6.80;100.00;95715.45;109078;1275;23834;-83
2023/04/02 04:33:54;;;;;;;21.90;19.50;;;;;;;6.81;100.00;95718.80;109171;1269;22621;-82
2023/04/02 04:36:28;;;;;;;57.50;51.80;;;;;;;6.83;100.00;95716.73;109122;1264;45468;-82
2023/04/02 04:39:04;;;;;;;44.60;40.00;;;;;;;6.86;100.00;95719.39;109153;1275;22577;-82
2023/04/02 04:41:36;;;;;;;27.20;23.60;;;;;;;6.87;100.00;95721.08;109193;1275;22516;-82
2023/04/02 04:44:14;;;;;;;32.20;25.20;;;;;;;6.89;100.00;95724.43;109134;1275;22579;-83
2023/04/02 04:46:48;;;;;;;26.80;21.90;;;;;;;6.88;100.00;95728.66;108994;1275;72929;-83
2023/04/02 04:49:20;;;;;;;65.30;41.20;;;;;;;6.87;100.00;95725.92;109030;1275;22667;-82
2023/04/02 04:51:54;;;;;;;102.10;60.80;;;;;;;6.89;100.00;95728.22;109063;1275;25336;-83
2023/04/02 04:54:26;;;;;;;93.30;54.60;;;;;;;6.90;100.00;95726.27;109093;1275;23896;-83
2023/04/02 04:56:59;;;;;;;98.00;61.90;;;;;;;6.91;100.00;95731.70;109095;1272;50350;-83
2023/04/02 04:59:32;;;;;;;56.90;41.10;;;;;;;6.93;100.00;95734.69;109155;1275;22588;-84
2023/04/02 05:02:06;;;;;;;34.70;28.80;;;;;;;6.94;100.00;95736.10;109066;1275;22569;-83
2023/04/02 05:04:36;;;;;;;25.80;22.90;;;;;;;6.94;100.00;95735.89;109144;1275;23203;-83
2023/04/02 05:07:10;;;;;;;26.20;23.30;;;;;;;6.94;100.00;95733.94;109130;1269;35104;-82
2023/04/02 05:09:42;;;;;;;24.70;21.40;;;;;;;6.93;100.00;95734.53;109251;1275;24463;-83
2023/04/02 05:12:21;;;;;;;21.50;19.20;;;;;;;6.92;100.00;95737.92;109106;1275;22511;-82
2023/04/02 05:14:54;;;;;;;20.00;17.90;;;;;;;6.92;100.00;95736.28;109117;1275;22624;-82
2023/04/02 05:17:30;;;;;;;20.60;18.40;;;;;;;6.94;100.00;95741.95;109137;1275;23837;-82
2023/04/02 05:20:06;;;;;;;20.90;18.60;;;;;;;6.94;100.00;95743.33;109112;1269;22541;-82
2023/04/02 05:22:40;;;;;;;21.70;18.50;;;;;;;6.95;100.00;95745.52;109088;1275;24237;-82
2023/04/02 05:25:19;;;;;;;21.40;18.60;;;;;;;6.96;100.00;95745.66;109013;1268;33749;-83
2023/04/02 05:27:53;;;;;;;21.30;19.00;;;;;;;6.95;100.00;95748.16;109117;1275;22567;-83
2023/04/02 05:30:39;;;;;;;22.80;20.10;;;;;;;6.94;100.00;95746.80;109158;1275;22518;-83
2023/04/02 05:33:20;;;;;;;21.90;19.30;;;;;;;6.94;100.00;95747.33;109071;1275;22650;-83
2023/04/02 05:35:55;;;;;;;21.90;19.00;;;;;;;6.93;100.00;95752.13;109093;1275;39824;-83
2023/04/02 05:38:28;;;;;;;21.30;18.60;;;;;;;6.91;100.00;95752.41;109134;1275;22476;-83
2023/04/02 05:41:02;;;;;;;22.40;19.30;;;;;;;6.90;100.00;95759.31;109119;1272;22559;-83
2023/04/02 05:43:34;;;;;;;21.60;18.70;;;;;;;6.90;100.00;95759.69;109124;1272;22593;-83
2023/04/02 05:46:13;;;;;;;20.40;17.60;;;;;;;6.90;100.00;95760.69;109099;1275;62316;-83
2023/04/02 05:48:43;;;;;;;20.90;17.10;;;;;;;6.91;100.00;95759.63;109079;1268;25334;-83
2023/04/02 05:51:19;;;;;;;21.40;18.30;;;;;;;6.90;100.00;95764.70;109126;1275;24188;-84
2023/04/02 05:53:52;;;;;;;20.40;18.20;;;;;;;6.89;100.00;95765.37;109106;1275;22527;-83
2023/04/02 05:56:25;;;;;;;22.40;18.90;;;;;;;6.91;100.00;95765.23;109027;1272;59111;-83
2023/04/02 05:59:00;;;;;;;21.30;18.10;;;;;;;6.92;100.00;95766.32;109108;1275;22648;-83
2023/04/02 06:01:36;;;;;;;23.00;20.40;;;;;;;6.94;100.00;95768.56;109130;1269;22673;-84
2023/04/02 06:04:17;;;;;;;22.80;20.40;;;;;;;6.97;100.00;95768.21;109085;1275;22461;-84
2023/04/02 06:06:51;;;;;;;23.80;20.40;;;;;;;6.98;100.00;95768.63;109054;1269;73353;-83
2023/04/02 06:09:28;;;;;;;22.40;19.40;;;;;;;6.98;100.00;95769.95;109065;1256;22666;-83
2023/04/02 06:12:04;;;;;;;23.40;19.90;;;;;;;6.99;100.00;95773.15;109105;1275;22566;-83
2023/04/02 06:14:33;;;;;;;22.70;20.20;;;;;;;6.99;100.00;95776.89;109143;1269;22530;-83
2023/04/02 06:17:02;;;;;;;22.20;19.80;;;;;;;6.99;100.00;95779.27;109083;1274;44590;-83
2023/04/02 06:19:36;;;;;;;23.00;20.60;;;;;;;6.96;100.00;95784.98;109154;1275;22536;-82
2023/04/02 06:22:18;;;;;;;21.80;19.30;;;;;;;6.96;100.00;95785.30;109163;1269;22574;-83
2023/04/02 06:24:51;;;;;;;22.30;19.20;;;;;;;6.94;100.00;95790.02;109181;1275;25508;-83
2023/04/02 06:27:23;;;;;;;20.90;18.70;;;;;;;6.95;100.00;95792.55;109071;1275;44469;-83
2023/04/02 06:29:54;;;;;;;22.60;19.40;;;;;;;6.95;100.00;95797.02;109149;1275;23955;-83
2023/04/02 06:32:25;;;;;;;21.00;18.70;;;;;;;6.96;100.00;95798.33;109152;1275;22568;-82
2023/04/02 06:34:54;;;;;;;20.00;17.80;;;;;;;6.94;100.00;95800.45;109163;1275;22576;-83
2023/04/02 06:37:29;;;;;;;20.60;18.20;;;;;;;6.95;100.00;95800.13;109155;1275;22477;-83
2023/04/02 06:40:00;;;;;;;21.70;19.40;;;;;;;6.96;100.00;95805.42;109107;1275;22524;-82
2023/04/02 06:42:33;;;;;;;21.00;18.80;;;;;;;6.98;100.00;95808.05;109083;1275;22581;-82
2023/04/02 06:45:02;;;;;;;20.40;18.00;;;;;;;6.99;100.00;95813.52;109045;1270;73289;-83
2023/04/02 06:47:36;;;;;;;29.50;26.20;;;;;;;6.97;100.00;95815.91;109067;1275;22661;-83
2023/04/02 06:50:12;;;;;;;27.80;24.70;;;;;;;6.95;100.00;95819.67;109050;1275;22584;-83
2023/04/02 06:52:46;;;;;;;67.20;45.40;;;;;;;6.93;100.00;95821.80;109080;1275;22529;-83
2023/04/02 06:55:29;;;;;;;54.60;36.90;;;;;;;6.93;100.00;95822.59;109061;1273;50584;-83
2023/04/02 06:57:58;;;;;;;47.50;32.20;;;;;;;6.95;100.00;95826.79;109090;1268;22496;-83
2023/04/02 07:00:34;;;;;;;29.00;22.60;;;;;;;6.95;100.00;95825.84;109061;1275;22568;-83
2023/04/02 07:03:06;;;;;;;33.30;24.90;;;;;;;6.97;100.00;95828.30;109121;1275;23251;-83
2023/04/02 07:05:35;;;;;;;29.60;24.40;;;;;;;6.98;100.00;95830.70;109010;1269;61797;-83
2023/04/02 07:08:04;;;;;;;43.40;32.00;;;;;;;7.00;100.00;95832.64;109106;1275;22613;-83
2023/04/02 07:10:33;;;;;;;39.00;29.50;;;;;;;7.00;100.00;95836.97;109147;1272;22483;-83
2023/04/02 07:13:02;;;;;;;26.30;19.90;;;;;;;7.00;100.00;95839.86;109121;1275;22590;-83
2023/04/02 07:15:31;;;;;;;27.90;23.70;;;;;;;7.00;100.00;95841.82;109045;1275;58540;-83
2023/04/02 07:18:00;;;;;;;29.00;25.80;;;;;;;7.01;100.00;95844.59;109115;1275;23851;-82
2023/04/02 07:20:31;;;;;;;24.20;21.50;;;;;;;7.02;100.00;95847.23;109066;1275;22547;-83
2023/04/02 07:23:00;;;;;;;22.50;19.60;;;;;;;7.03;100.00;95851.02;109094;1275;24656;-83
2023/04/02 07:25:28;;;;;;;21.30;18.50;;;;;;;7.02;100.00;95855.55;109020;1267;46203;-83
2023/04/02 07:27:57;;;;;;;14.80;12.50;;;;;;;6.99;100.00;95856.48;109121;1275;24798;-85
2023/04/02 07:30:26;;;;;;;19.10;16.60;;;;;;;6.97;100.00;95861.59;109129;1275;22577;-84
2023/04/02 07:32:57;;;;;;;16.20;14.10;;;;;;;6.97;100.00;95862.44;109109;1275;22711;-83
2023/04/02 07:35:27;;;;;;;18.40;15.50;;;;;;;6.97;100.00;95865.29;109065;1275;93623;-83
2023/04/02 07:37:55;;;;;;;17.30;15.20;;;;;;;6.96;100.00;95868.61;109096;1275;24176;-82
2023/04/02 07:40:24;;;;;;;17.60;15.30;;;;;;;6.99;100.00;95873.66;109122;1269;23264;-82
2023/04/02 07:42:52;;;;;;;16.20;14.50;;;;;;;7.01;100.00;95877.59;109085;1269;22542;-83
2023/04/02 07:45:21;;;;;;;16.10;14.40;;;;;;;7.01;100.00;95877.74;109060;1275;51107;-83
2023/04/02 07:47:50;;;;;;;14.30;12.80;;;;;;;7.03;100.00;95878.16;109040;1273;25091;-82
2023/04/02 07:50:19;;;;;;;15.50;13.30;;;;;;;7.05;100.00;95882.60;109068;1269;22492;-84
2023/04/02 07:52:48;;;;;;;15.60;14.00;;;;;;;7.05;100.00;95881.55;109102;1275;22622;-83
2023/04/02 07:55:18;;;;;;;14.30;12.50;;;;;;;7.06;100.00;95881.33;109025;1275;66318;-83
2023/04/02 07:57:51;;;;;;;15.50;13.70;;;;;;;7.08;100.00;95880.25;109137;1275;22541;-83
2023/04/02 08:00:22;;;;;;;16.10;13.60;;;;;;;7.10;100.00;95884.40;109050;1272;22533;-83
2023/04/02 08:02:51;;;;;;;14.50;12.50;;;;;;;7.13;100.00;95885.27;109074;1275;22465;-83
2023/04/02 08:05:19;;;;;;;15.00;12.80;;;;;;;7.10;100.00;95888.30;109023;1275;92923;-83
2023/04/02 08:07:54;;;;;;;15.90;14.20;;;;;;;7.11;100.00;95887.39;109059;1256;22522;-83
2023/04/02 08:10:23;;;;;;;15.00;12.30;;;;;;;7.13;100.00;95887.21;109073;1252;22553;-83
2023/04/02 08:12:51;;;;;;;16.00;12.20;;;;;;;7.14;100.00;95891.17;109090;1275;23043;-83
2023/04/02 08:15:20;;;;;;;13.40;12.00;;;;;;;7.16;100.00;95892.20;108975;1270;44728;-83
2023/04/02 08:17:48;;;;;;;15.90;13.40;;;;;;;7.18;100.00;95893.41;109125;1275;22502;-84
2023/04/02 08:20:19;;;;;;;20.50;18.40;;;;;;;7.21;100.00;95896.26;109074;1275;22485;-82
2023/04/02 08:22:49;;;;;;;20.50;18.20;;;;;;;7.25;100.00;95898.54;109104;1275;24308;-83
2023/04/02 08:25:18;;;;;;;26.40;23.70;;;;;;;7.28;100.00;95898.05;109041;1267;62409;-83
2023/04/02 08:27:48;;;;;;;26.70;23.80;;;;;;;7.30;100.00;95899.19;109107;1275;22576;-82
2023/04/02 08:30:18;;;;;;;16.90;15.10;;;;;;;7.32;100.00;95900.80;109080;1275;22978;-83
2023/04/02 08:32:46;;;;;;;15.40;12.80;;;;;;;7.32;100.00;95903.76;109099;1269;22543;-83
2023/04/02 08:35:16;;;;;;;13.30;11.30;;;;;;;7.33;100.00;95907.88;109069;1271;69385;-83
2023/04/02 08:37:44;;;;;;;15.60;13.50;;;;;;;7.36;100.00;95908.70;109135;1275;24333;-83
2023/04/02 08:40:23;;;;;;;14.50;10.90;;;;;;;7.37;100.00;95909.64;109105;1275;22513;-83
2023/04/02 08:43:10;;;;;;;13.60;10.30;;;;;;;7.39;100.00;95910.41;109131;1275;25424;-83
2023/04/02 08:45:55;;;;;;;16.40;12.80;;;;;;;7.39;100.00;95915.79;109054;1275;44292;-82
2023/04/02 08:48:24;;;;;;;12.30;9.80;;;;;;;7.39;100.00;95917.69;109107;1269;22537;-82
2023/04/02 08:50:53;;;;;;;13.60;11.60;;;;;;;7.36;100.00;95920.61;109084;1275;23717;-82
2023/04/02 08:53:24;;;;;;;9.30;7.30;;;;;;;7.35;100.00;95922.79;109145;1271;22563;-83
2023/04/02 08:56:04;;;;;;;14.20;11.30;;;;;;;7.34;100.00;95924.17;109032;1275;50102;-83
2023/04/02 08:58:40;;;;;;;11.50;9.30;;;;;;;7.35;100.00;95929.74;109108;1275;22517;-83
2023/04/02 09:01:20;;;;;;;12.00;9.70;;;;;;;7.37;100.00;95929.89;109046;1269;22560;-83
2023/04/02 09:03:53;;;;;;;11.20;7.30;;;;;;;7.44;100.00;95929.20;109051;1272;22494;-83
2023/04/02 09:06:22;;;;;;;11.30;7.80;;;;;;;7.42;99.99;95931.85;109056;1275;58714;-83
2023/04/02 09:08:53;;;;;;;9.20;7.80;;;;;;;7.45;99.94;95937.69;109100;1275;22577;-83
2023/04/02 09:11:26;;;;;;;10.30;7.70;;;;;;;7.52;99.99;95939.11;109136;1275;24294;-83
2023/04/02 09:14:01;;;;;;;12.90;10.30;;;;;;;7.51;99.65;95943.19;109055;1270;22739;-83
2023/04/02 09:16:42;;;;;;;10.90;8.10;;;;;;;7.47;99.32;95941.37;109012;1269;65336;-83
2023/04/02 09:19:23;;;;;;;10.80;8.80;;;;;;;7.44;99.46;95944.86;109119;1275;22745;-83
2023/04/02 09:22:07;;;;;;;11.50;7.40;;;;;;;7.46;99.69;95947.29;109093;1275;22563;-83
2023/04/02 09:24:36;;;;;;;8.60;6.60;;;;;;;7.40;99.15;95955.34;109090;1275;23820;-82
2023/04/02 09:27:18;;;;;;;15.10;11.20;;;;;;;7.34;99.06;95959.23;109063;1268;43816;-82
2023/04/02 09:29:50;;;;;;;20.60;14.20;;;;;;;7.34;99.29;95961.55;109109;1275;22698;-82
2023/04/02 09:32:45;;;;;;;14.70;10.50;;;;;;;7.35;99.12;95965.45;109057;1272;22514;-83
2023/04/02 09:35:15;;;;;;;17.00;12.90;;;;;;;7.33;99.05;95968.58;109222;1275;79564;-83
2023/04/02 09:37:45;;;;;;;10.40;7.70;;;;;;;7.31;98.85;95974.05;109039;1275;22544;-83
2023/04/02 09:40:25;;;;;;;9.30;7.10;;;;;;;7.28;98.88;95982.03;109093;1275;22531;-83
2023/04/02 09:43:10;;;;;;;8.10;6.10;;;;;;;7.27;99.01;95991.32;109060;1272;22565;-83
2023/04/02 09:45:40;;;;;;;7.20;5.60;;;;;;;7.28;99.01;95995.69;109123;1275;40661;-83
2023/04/02 09:48:24;;;;;;;7.80;5.60;;;;;;;7.27;99.14;96002.02;109078;1275;22481;-83
2023/04/02 09:51:11;;;;;;;7.30;5.50;;;;;;;7.26;99.14;96009.15;109203;1275;22581;-83
2023/04/02 09:53:42;;;;;;;8.30;5.90;;;;;;;7.30;99.51;96013.66;109145;1272;22664;-84
2023/04/02 09:56:16;;;;;;;7.10;5.40;;;;;;;7.31;99.58;96017.55;109022;1275;55770;-84
2023/04/02 09:59:01;;;;;;;8.30;6.40;;;;;;;7.38;99.67;96021.33;109244;1275;22570;-83
2023/04/02 10:01:32;;;;;;;8.00;5.30;;;;;;;7.48;99.97;96025.81;109096;1267;23214;-83
2023/04/02 10:04:04;;;;;;;2.90;2.50;;;;;;;7.48;99.63;96029.66;109124;1275;22562;-84
2023/04/02 10:06:33;;;;;;;1.70;1.20;;;;;;;7.28;97.76;96030.23;109081;1275;63938;-85
2023/04/02 10:09:27;;;;;;;1.10;0.90;;;;;;;6.98;96.20;96030.20;109061;1272;22578;-84
2023/04/02 10:11:57;;;;;;;2.20;0.80;;;;;;;6.68;95.94;96035.55;109093;1275;22714;-84
2023/04/02 10:14:31;;;;;;;2.50;0.90;;;;;;;6.54;96.48;96043.73;109091;1275;22510;-85
2023/04/02 10:17:12;;;;;;;1.70;1.10;;;;;;;6.40;96.23;96053.45;109050;1275;39657;-84
2023/04/02 10:19:42;;;;;;;0.80;0.80;;;;;;;6.21;96.20;96057.20;109059;1275;22735;-85
2023/04/02 10:22:15;;;;;;;1.70;1.10;;;;;;;6.13;96.58;96065.56;109105;1275;25401;-85
2023/04/02 10:24:44;;;;;;;3.50;1.00;;;;;;;6.16;96.87;96074.39;109088;1275;24278;-84
2023/04/02 10:27:25;;;;;;;1.50;1.00;;;;;;;6.19;97.04;96081.83;109044;1269;64197;-84
2023/04/02 10:30:15;;;;;;;1.30;0.80;;;;;;;6.20;96.80;96085.40;109081;1275;22589;-84
2023/04/02 10:32:49;;;;;;;0.80;0.70;;;;;;;6.07;96.24;96092.55;108888;1275;22545;-84
2023/04/02 10:35:32;;;;;;;1.50;0.70;;;;;;;6.05;96.35;96098.61;109064;1272;53562;-84
2023/04/02 10:38:28;;;;;;;1.30;1.00;;;;;;;5.92;95.99;96104.52;109074;1273;22550;-85
2023/04/02 10:41:01;;;;;;;1.20;0.90;;;;;;;5.86;96.23;96116.33;109076;1274;22588;-83
2023/04/02 10:43:46;;;;;;;1.10;0.80;;;;;;;5.89;96.27;96116.39;109067;1272;23325;-83
2023/04/02 10:46:22;;;;;;;1.30;0.70;;;;;;;5.83;96.07;96122.33;109057;1275;53427;-83
2023/04/02 10:49:01;;;;;;;1.00;0.80;;;;;;;5.75;95.95;96133.70;109152;1264;22477;-83
2023/04/02 10:51:38;;;;;;;0.40;0.30;;;;;;;5.76;96.13;96131.88;109117;1275;23435;-83
2023/04/02 10:54:22;;;;;;;0.60;0.40;;;;;;;5.67;95.40;96136.36;109108;1275;23776;-84
2023/04/02 10:56:54;;;;;;;2.20;0.50;;;;;;;5.56;95.10;96142.38;109053;1275;41752;-84
2023/04/02 10:59:27;;;;;;;1.00;0.50;;;;;;;5.44;94.72;96151.84;109036;1275;24228;-83
2023/04/02 11:02:00;;;;;;;0.60;0.40;;;;;;;5.33;94.41;96150.05;109123;1260;23103;-83
2023/04/02 11:04:37;;;;;;;1.50;0.60;;;;;;;5.18;94.07;96158.81;109065;1275;24130;-83
2023/04/02 11:07:16;;;;;;;1.30;1.00;;;;;;;4.97;93.90;96164.58;109004;1275;55546;-83
2023/04/02 11:09:49;;;;;;;0.50;0.30;;;;;;;4.82;94.14;96173.82;109105;1275;22586;-86
2023/04/02 11:12:23;;;;;;;1.30;0.50;;;;;;;4.60;93.86;96183.47;109076;1275;22531;-84
2023/04/02 11:14:53;;;;;;;0.60;0.20;;;;;;;4.49;94.14;96187.11;109082;1275;22527;-84
2023/04/02 11:17:23;;;;;;;1.20;0.70;;;;;;;4.39;94.26;96195.36;109059;1275;73484;-84
2023/04/02 11:19:51;;;;;;;1.00;0.60;;;;;;;4.29;94.24;96199.31;109020;1272;22685;-86
2023/04/02 11:22:22;;;;;;;0.70;0.50;;;;;;;4.16;94.34;96201.17;109049;1272;22546;-84
2023/04/02 11:24:54;;;;;;;0.40;0.30;;;;;;;4.06;94.72;96204.48;109017;1275;23173;-84
2023/04/02 11:27:27;;;;;;;0.60;0.40;;;;;;;4.03;94.82;96209.54;109056;1269;22486;-83
2023/04/02 11:30:04;;;;;;;0.90;0.40;;;;;;;4.00;94.95;96215.02;109219;1275;24152;-84
2023/04/02 11:32:38;;;;;;;1.00;0.50;;;;;;;4.02;94.92;96221.69;109043;1275;22772;-83
2023/04/02 11:35:26;;;;;;;0.60;0.30;;;;;;;4.07;94.93;96223.38;109055;1275;37910;-85
2023/04/02 11:37:57;;;;;;;0.60;0.50;;;;;;;4.03;94.65;96228.95;109080;1275;25984;-83
2023/04/02 11:40:46;;;;;;;2.30;0.70;;;;;;;3.97;94.51;96233.24;109126;1275;22495;-83
2023/04/02 11:43:50;;;;;;;1.10;0.50;;;;;;;3.88;94.47;96234.76;109095;1265;22649;-83
2023/04/02 11:46:45;;;;;;;1.60;0.70;;;;;;;3.91;94.69;96241.07;108998;1272;90938;-83
2023/04/02 11:49:39;;;;;;;0.40;0.40;;;;;;;3.89;94.51;96244.47;109021;1276;22486;-82
2023/04/02 11:52:28;;;;;;;0.70;0.50;;;;;;;3.82;94.32;96252.41;109063;1275;24158;-84